Share

Arhangel'Sk, Russia

6:53 AM MSK on April 24, 2014 (GMT +0400)
Talagi (ULAA) Elev 59 ft | 64.60 °N, 40.72 °E | Change Station

Current weather conditions updated 23 minutes ago

Light Snow Showers
Light Showers Snow
27 °F
Feels Like 19 °F
N
7
Wind Variable Wind from NW
Sunrise 5:12 AM
Sunset 9:20 PM
Moon Waning Crescent

Today is forecast to be nearly the same temperature as yesterday. Periods of snow.

Pressure 30.21 in
Visibility 5.0 miles
Clouds Mostly Cloudy 1000 ft
Windchill 19 °F
Dew Point 23 °F
Humidity 86%
Rainfall 0.00 in
Snow Depth Not available.
UV 0 out of 16
Pollen Not available.
Air Quality Not available.
Flu Activity Not available.
METAR ULAA 240230Z 32003MPS 280V360 8000 -SHSN BKN010CB M03/M05 Q1023 TEMPO 2000 SHSN BKN005CB RMK QFE766/1022 SC070

More Conditions Fewer Conditions

Pressure 30.21 in
Visibility 5.0 miles
Clouds Mostly Cloudy 1000 ft
Windchill 19 °F
Dew Point 23 °F
Humidity 86%
Rainfall 0.00 in
Snow Depth Not available.
UV 0 out of 16
Pollen Not available.
Air Quality Not available.
Flu Activity Not available.
METAR ULAA 240230Z 32003MPS 280V360 8000 -SHSN BKN010CB M03/M05 Q1023 TEMPO 2000 SHSN BKN005CB RMK QFE766/1022 SC070

More Conditions Fewer Conditions

10-Day Weather Forecast

Almanac

Astronomy

Apr. 24, 2014 Rise Set
Actual Time 5:12 AM MSK 9:20 PM MSK
Civil Twilight 4:08 AM MSK 10:25 PM MSK
Nautical Twilight 2:08 AM MSK 12:36 AM MSK
Astronomical Twilight Sun does not rise Sun does not rise
Moon 4:09 AM MSK 2:19 PM MSK
Length of Visible Light 18h 16m
Length of Day
16h 08m
Tomorrow will be 6m 50s longer.
Waning Crescent, 30% of the Moon is Illuminated
Apr 23
Waning Crescent
Apr 29
New
May 6
First Quarter
May 14
Full
May 21
Last Quarter

Yesterday's Extremes

Country Highs Country Lows

Community

  • Nestled In
    Nestled In
  • Stunning Sunrise
    Stunning Sunrise
  • spring flowers
    spring flowers
  • Earth Day Spectrum Ove' Blue
    Earth Day Spectrum Ove' Blue
  • BARN B&W
    BARN B&W

WunderPhotos

Upload Photos

1,704,525 photos uploaded!

WunderBlogs® & News

Nearby

Snow Depth

Not available.

Coastal Water Temperatures

Place Temperature
No Stations Reporting

Earthquake Activity

City Distance Mag. Time & Date
No recent earthquake activity has been reported nearby.
Minimum magnitude displayed is 2.5.

Nearby Weather Stations

There are no personal weather stations in this area.

What do you think?

We're not finished. Please let us know what you like, what you don't like, and what you are still missing.